createdAt,value
2022-08-10T00:01:34.483Z,20.03
2022-08-10T00:04:02.227Z,20.01
2022-08-10T00:06:29.184Z,19.97
2022-08-10T00:08:55.859Z,19.93
2022-08-10T00:11:22.880Z,19.85
2022-08-10T00:13:49.747Z,19.88
2022-08-10T00:16:16.483Z,19.83
2022-08-10T00:18:43.231Z,19.81
2022-08-10T00:21:11.032Z,19.79
2022-08-10T00:23:38.440Z,19.86
2022-08-10T00:26:06.748Z,19.81
2022-08-10T00:28:33.552Z,19.83
2022-08-10T00:31:00.227Z,19.80
2022-08-10T00:33:26.974Z,19.85
2022-08-10T00:35:53.657Z,19.94
2022-08-10T00:38:20.525Z,19.91
2022-08-10T00:40:47.234Z,19.80
2022-08-10T00:43:13.898Z,19.79
2022-08-10T00:45:40.660Z,19.80
2022-08-10T00:48:07.341Z,19.86
2022-08-10T00:50:34.467Z,19.91
2022-08-10T00:53:01.782Z,19.82
2022-08-10T00:55:28.887Z,19.95
2022-08-10T00:57:56.250Z,19.91
2022-08-10T01:00:24.102Z,19.80
2022-08-10T01:02:50.849Z,19.86
2022-08-10T01:05:20.185Z,19.89
2022-08-10T01:08:19.698Z,19.81
2022-08-10T01:10:58.463Z,19.78
2022-08-10T01:13:33.621Z,19.83
2022-08-10T01:16:18.402Z,19.63
2022-08-10T01:18:47.714Z,19.76
2022-08-10T01:21:26.743Z,19.65
2022-08-10T01:24:16.927Z,19.62
2022-08-10T01:27:13.571Z,19.59
2022-08-10T01:30:20.040Z,19.53
2022-08-10T01:32:51.598Z,19.52
2022-08-10T01:35:41.373Z,19.63
2022-08-10T01:38:37.522Z,19.66
2022-08-10T01:41:12.061Z,19.67
2022-08-10T01:43:54.402Z,19.70
2022-08-10T01:46:24.402Z,19.73
2022-08-10T01:48:57.061Z,19.72
2022-08-10T01:51:37.468Z,19.71
2022-08-10T01:54:12.592Z,19.68
2022-08-10T01:56:44.168Z,19.52
2022-08-10T01:59:19.828Z,19.52
2022-08-10T02:01:53.682Z,19.59
2022-08-10T02:04:21.626Z,19.55
2022-08-10T02:06:53.259Z,19.54
2022-08-10T02:09:34.508Z,19.60
2022-08-10T02:12:08.965Z,19.63
2022-08-10T02:14:45.012Z,19.70
2022-08-10T02:17:58.637Z,19.78
2022-08-10T02:20:31.460Z,19.83
2022-08-10T02:23:02.449Z,19.82
2022-08-10T02:25:41.066Z,19.85
2022-08-10T02:28:12.412Z,19.77
2022-08-10T02:30:57.636Z,19.64
2022-08-10T02:33:27.724Z,19.71
2022-08-10T02:35:56.158Z,19.77
2022-08-10T02:38:59.559Z,19.69
2022-08-10T02:45:15.846Z,19.63
2022-08-10T02:45:21.462Z,19.57
2022-08-10T02:47:22.224Z,19.44
2022-08-10T02:50:02.283Z,19.31
2022-08-10T02:52:38.798Z,19.24
2022-08-10T02:55:18.103Z,19.15
2022-08-10T02:58:13.327Z,19.08
2022-08-10T03:00:46.578Z,19.02
2022-08-10T03:03:20.182Z,18.94
2022-08-10T03:05:51.122Z,18.90
2022-08-10T03:08:21.360Z,18.88
2022-08-10T03:10:49.634Z,18.86
2022-08-10T03:13:18.756Z,18.72
2022-08-10T03:15:46.887Z,18.78
2022-08-10T03:18:14.290Z,18.68
2022-08-10T03:20:42.976Z,18.62
2022-08-10T03:23:16.390Z,18.57
2022-08-10T03:25:53.578Z,18.53
2022-08-10T03:28:26.988Z,18.46
2022-08-10T03:30:54.823Z,18.37
2022-08-10T03:33:22.777Z,18.46
2022-08-10T03:36:41.783Z,18.47
2022-08-10T03:38:40.451Z,18.51
2022-08-10T03:41:11.516Z,18.54
2022-08-10T03:43:46.447Z,18.49
2022-08-10T03:46:15.425Z,18.39
2022-08-10T03:48:49.465Z,18.38
2022-08-10T03:51:18.765Z,18.27
2022-08-10T03:54:05.557Z,18.14
2022-08-10T03:56:34.780Z,18.18
2022-08-10T03:59:02.145Z,18.18
2022-08-10T04:02:47.140Z,18.10
2022-08-10T04:04:23.293Z,18.28
2022-08-10T04:06:54.700Z,18.44
2022-08-10T04:09:22.791Z,18.46
2022-08-10T04:11:49.534Z,18.55
2022-08-10T04:14:38.370Z,18.58
2022-08-10T04:17:02.793Z,18.59
2022-08-10T04:19:35.470Z,18.66
2022-08-10T04:22:10.277Z,18.77
2022-08-10T04:24:39.066Z,18.73
2022-08-10T04:27:05.944Z,18.87
2022-08-10T04:29:32.644Z,18.94
2022-08-10T04:32:01.421Z,19.01
2022-08-10T04:34:31.930Z,19.16
2022-08-10T04:37:05.437Z,19.27
2022-08-10T04:39:35.078Z,19.36
2022-08-10T04:42:01.976Z,19.44
2022-08-10T04:44:28.740Z,19.75
2022-08-10T04:46:58.329Z,19.72
2022-08-10T04:49:56.484Z,19.89
2022-08-10T04:52:13.345Z,20.58
2022-08-10T04:54:40.239Z,21.30
2022-08-10T04:57:09.032Z,21.90
2022-08-10T04:59:35.874Z,22.23
2022-08-10T05:02:29.516Z,23.08
2022-08-10T05:04:49.270Z,23.40
2022-08-10T05:07:18.230Z,23.76
2022-08-10T05:10:04.588Z,24.15
2022-08-10T05:12:38.802Z,23.75
2022-08-10T05:15:11.708Z,24.18
2022-08-10T05:17:39.695Z,23.93
2022-08-10T05:20:08.694Z,23.93
2022-08-10T05:22:43.244Z,23.61
2022-08-10T05:25:16.091Z,23.30
2022-08-10T05:27:44.852Z,23.77
2022-08-10T05:30:19.781Z,24.03
2022-08-10T05:32:56.036Z,24.24
2022-08-10T05:35:27.353Z,24.26
2022-08-10T05:38:09.086Z,24.09
2022-08-10T05:40:42.704Z,24.03
2022-08-10T05:43:18.362Z,23.85
2022-08-10T05:46:17.288Z,24.05
2022-08-10T05:48:41.845Z,23.88
2022-08-10T05:51:20.748Z,23.71
2022-08-10T05:54:02.155Z,23.93
2022-08-10T05:56:54.970Z,24.18
2022-08-10T06:00:29.376Z,24.40
2022-08-10T06:02:41.784Z,24.19
2022-08-10T06:05:11.700Z,24.35
2022-08-10T06:07:42.676Z,24.17
2022-08-10T06:10:12.973Z,24.32
2022-08-10T06:12:55.179Z,24.59
2022-08-10T06:15:50.205Z,24.37
2022-08-10T06:18:13.848Z,23.84
2022-08-10T06:20:41.658Z,23.67
2022-08-10T06:23:08.550Z,23.54
2022-08-10T06:26:11.038Z,23.76
2022-08-10T06:28:23.260Z,24.09
2022-08-10T06:30:52.221Z,24.33
2022-08-10T06:33:21.283Z,24.17
2022-08-10T06:35:53.788Z,24.30
2022-08-10T06:38:23.622Z,24.04
2022-08-10T06:40:53.547Z,24.05
2022-08-10T06:43:23.689Z,24.08
2022-08-10T06:46:06.828Z,24.77
2022-08-10T06:48:37.920Z,25.08
2022-08-10T06:51:14.312Z,24.88
2022-08-10T06:53:53.846Z,25.08
2022-08-10T06:56:36.094Z,25.23
2022-08-10T06:59:27.063Z,25.60
2022-08-10T07:01:59.688Z,25.64
2022-08-10T07:04:43.607Z,25.98
2022-08-10T07:07:18.684Z,26.41
2022-08-10T07:09:47.082Z,26.11
2022-08-10T07:12:15.473Z,25.95
2022-08-10T07:14:45.524Z,25.75
2022-08-10T07:17:19.074Z,25.64
2022-08-10T07:19:52.228Z,25.89
2022-08-10T07:23:22.897Z,25.94
2022-08-10T07:25:15.080Z,25.80
2022-08-10T07:28:00.815Z,25.99
2022-08-10T07:30:31.626Z,26.51
2022-08-10T07:33:00.469Z,26.67
2022-08-10T07:35:34.652Z,25.88
2022-08-10T07:38:07.584Z,26.03
2022-08-10T07:40:35.426Z,25.95
2022-08-10T07:43:02.866Z,25.86
2022-08-10T07:45:32.856Z,26.12
2022-08-10T07:48:07.934Z,26.15
2022-08-10T07:50:38.090Z,26.59
2022-08-10T07:53:07.207Z,26.49
2022-08-10T07:56:05.506Z,26.45
2022-08-10T07:58:28.636Z,26.52
2022-08-10T08:00:57.478Z,26.60
2022-08-10T08:03:27.441Z,26.72
2022-08-10T08:06:03.335Z,26.68
2022-08-10T08:08:33.457Z,26.95
2022-08-10T08:11:01.440Z,27.22
2022-08-10T08:13:29.614Z,26.64
2022-08-10T08:16:19.149Z,26.51
2022-08-10T08:18:58.310Z,26.59
2022-08-10T08:24:10.410Z,26.74
2022-08-10T08:24:32.704Z,26.96
2022-08-10T08:27:03.044Z,27.20
2022-08-10T08:29:34.123Z,27.60
2022-08-10T08:32:03.725Z,28.05
2022-08-10T08:34:32.670Z,28.18
2022-08-10T08:37:01.111Z,28.21
2022-08-10T08:39:28.437Z,28.25
2022-08-10T08:42:14.182Z,27.91
2022-08-10T08:44:55.965Z,27.69
2022-08-10T08:48:04.190Z,27.66
2022-08-10T08:50:53.963Z,27.53
2022-08-10T08:54:06.307Z,27.46
2022-08-10T08:56:58.503Z,28.12
2022-08-10T08:59:44.276Z,28.54
2022-08-10T09:02:22.547Z,28.39
2022-08-10T09:05:14.929Z,28.45
2022-08-10T09:08:10.458Z,28.31
2022-08-10T09:11:08.632Z,28.23
2022-08-10T09:13:43.565Z,28.55
2022-08-10T09:16:28.912Z,28.76
2022-08-10T09:19:35.371Z,28.60
2022-08-10T09:22:42.884Z,28.17
2022-08-10T09:25:16.977Z,28.22
2022-08-10T09:27:49.575Z,28.49
2022-08-10T09:30:32.170Z,28.61
2022-08-10T09:36:24.974Z,28.70
2022-08-10T09:36:29.912Z,28.65
2022-08-10T09:40:12.315Z,29.29
2022-08-10T09:43:24.860Z,29.66
2022-08-10T09:46:11.898Z,29.66
2022-08-10T09:49:25.823Z,29.39
2022-08-10T09:52:09.659Z,29.38
2022-08-10T09:54:51.193Z,29.55
2022-08-10T09:57:43.400Z,29.21
2022-08-10T10:00:16.566Z,28.75
2022-08-10T10:02:44.033Z,28.39
2022-08-10T10:05:31.081Z,28.64
2022-08-10T10:08:17.860Z,28.62
2022-08-10T10:11:02.551Z,28.68
2022-08-10T10:13:44.743Z,28.57
2022-08-10T10:16:52.245Z,28.31
2022-08-10T10:19:43.240Z,28.27
2022-08-10T10:22:37.988Z,27.96
2022-08-10T10:25:50.252Z,27.78
2022-08-10T10:28:51.329Z,27.22
2022-08-10T10:31:37.537Z,27.27
2022-08-10T10:34:10.103Z,27.17
2022-08-10T10:36:40.016Z,27.55
2022-08-10T10:39:07.769Z,27.29
2022-08-10T10:42:42.331Z,27.61
2022-08-10T10:45:50.567Z,27.66
2022-08-10T10:48:24.157Z,27.68
2022-08-10T10:51:34.169Z,27.31
2022-08-10T10:54:24.741Z,27.45
2022-08-10T10:57:17.505Z,27.42
2022-08-10T10:59:55.016Z,27.49
2022-08-10T11:02:45.574Z,27.77
2022-08-10T11:05:52.891Z,27.94
2022-08-10T11:08:47.856Z,27.64
2022-08-10T11:12:00.529Z,27.73
2022-08-10T11:14:33.211Z,27.56
2022-08-10T11:17:14.747Z,27.87
2022-08-10T11:20:02.817Z,27.84
2022-08-10T11:22:46.371Z,27.70
2022-08-10T11:25:33.055Z,27.68
2022-08-10T11:28:26.090Z,27.57
2022-08-10T11:31:01.685Z,27.79
2022-08-10T11:34:03.920Z,27.61
2022-08-10T11:36:51.437Z,27.31
2022-08-10T11:39:33.158Z,27.32
2022-08-10T11:42:33.219Z,27.29
2022-08-10T11:45:22.299Z,27.42
2022-08-10T11:47:53.300Z,27.57
2022-08-10T11:50:34.866Z,27.61
2022-08-10T11:53:19.958Z,27.46
2022-08-10T11:55:54.131Z,27.49
2022-08-10T11:58:41.434Z,27.77
2022-08-10T12:01:13.487Z,28.27
2022-08-10T12:03:42.748Z,27.65
2022-08-10T12:06:15.487Z,26.89
2022-08-10T12:10:09.588Z,26.50
2022-08-10T12:11:31.162Z,26.01
2022-08-10T12:14:23.385Z,25.61
2022-08-10T12:17:05.507Z,25.32
2022-08-10T12:19:59.857Z,24.91
2022-08-10T12:22:34.253Z,24.59
2022-08-10T12:25:08.633Z,24.38
2022-08-10T12:27:54.825Z,24.40
2022-08-10T12:30:36.173Z,24.26
2022-08-10T12:34:01.336Z,23.98
2022-08-10T12:36:36.624Z,23.85
2022-08-10T12:39:25.302Z,23.84
2022-08-10T12:42:00.396Z,23.67
2022-08-10T12:44:57.739Z,23.62
2022-08-10T12:47:44.931Z,23.44
2022-08-10T12:50:37.654Z,23.71
2022-08-10T12:53:17.524Z,23.58
2022-08-10T12:55:45.779Z,23.78
2022-08-10T12:58:57.324Z,23.83
2022-08-10T13:01:16.738Z,23.93
2022-08-10T13:04:20.822Z,23.98
2022-08-10T13:06:36.938Z,23.94
2022-08-10T13:09:09.738Z,23.90
2022-08-10T13:12:35.530Z,24.00
2022-08-10T13:14:47.637Z,23.53
2022-08-10T13:17:21.252Z,23.09
2022-08-10T13:19:55.230Z,23.11
2022-08-10T13:22:27.185Z,23.16
2022-08-10T13:24:58.583Z,22.83
2022-08-10T13:28:00.840Z,22.79
2022-08-10T13:30:19.648Z,22.84
2022-08-10T13:33:05.837Z,22.90
2022-08-10T13:35:33.903Z,22.92
2022-08-10T13:38:02.932Z,22.80
2022-08-10T13:40:32.229Z,22.65
2022-08-10T13:43:01.797Z,22.34
2022-08-10T13:45:29.428Z,22.18
2022-08-10T13:48:21.664Z,22.35
2022-08-10T13:50:52.201Z,22.46
2022-08-10T13:53:19.714Z,22.44
2022-08-10T13:55:55.320Z,22.56
2022-08-10T13:58:44.544Z,22.52
2022-08-10T14:01:16.399Z,22.45
2022-08-10T14:03:44.328Z,22.59
2022-08-10T14:06:14.061Z,22.64
2022-08-10T14:08:48.247Z,22.68
2022-08-10T14:11:18.334Z,22.78
2022-08-10T14:13:58.204Z,22.72
2022-08-10T14:16:25.774Z,22.75
2022-08-10T14:18:54.891Z,22.41
2022-08-10T14:21:22.327Z,22.51
2022-08-10T14:23:53.122Z,22.45
2022-08-10T14:26:30.784Z,22.42
2022-08-10T14:29:05.537Z,22.35
2022-08-10T14:31:34.940Z,22.22
2022-08-10T14:34:05.003Z,22.19
2022-08-10T14:36:53.272Z,22.14
2022-08-10T14:39:25.237Z,21.87
2022-08-10T14:42:03.001Z,21.53
2022-08-10T14:45:01.994Z,21.33
2022-08-10T14:47:53.791Z,21.28
2022-08-10T14:50:32.417Z,20.86
2022-08-10T14:53:09.499Z,20.44
2022-08-10T14:55:58.996Z,20.11
2022-08-10T14:58:38.862Z,19.51
2022-08-10T15:01:25.484Z,18.47
2022-08-10T15:04:02.251Z,18.19
2022-08-10T15:06:37.858Z,17.99
2022-08-10T15:09:19.125Z,18.08
2022-08-10T15:12:14.922Z,18.09
2022-08-10T15:14:42.514Z,18.16
2022-08-10T15:17:14.288Z,18.12
2022-08-10T15:20:02.352Z,18.36
2022-08-10T15:22:38.104Z,18.32
2022-08-10T15:25:18.290Z,18.41
2022-08-10T15:27:54.623Z,18.01
2022-08-10T15:30:29.969Z,18.23
2022-08-10T15:33:57.510Z,18.45
2022-08-10T15:36:32.945Z,18.28
2022-08-10T15:39:02.953Z,18.44
2022-08-10T15:41:57.459Z,18.41
2022-08-10T15:44:49.903Z,18.41
2022-08-10T15:47:46.131Z,18.38
2022-08-10T15:50:19.937Z,18.45
2022-08-10T15:53:00.683Z,18.41
2022-08-10T15:55:45.802Z,18.32
2022-08-10T15:58:38.982Z,18.33
2022-08-10T16:02:14.761Z,18.28
2022-08-10T16:04:37.689Z,18.29
2022-08-10T16:07:16.471Z,18.26
2022-08-10T16:10:24.033Z,18.16
2022-08-10T16:12:44.757Z,18.19
2022-08-10T16:15:29.138Z,18.20
2022-08-10T16:18:08.957Z,18.20
2022-08-10T16:20:54.576Z,18.28
2022-08-10T16:23:35.113Z,18.24
2022-08-10T16:26:14.961Z,18.28
2022-08-10T16:28:51.570Z,18.24
2022-08-10T16:31:21.510Z,18.07
2022-08-10T16:33:53.468Z,18.36
2022-08-10T16:36:22.152Z,18.36
2022-08-10T16:38:50.766Z,18.26
2022-08-10T16:42:03.355Z,18.33
2022-08-10T16:44:10.875Z,18.39
2022-08-10T16:46:43.738Z,18.35
2022-08-10T16:49:12.787Z,18.37
2022-08-10T16:51:41.213Z,18.30
2022-08-10T16:54:12.562Z,18.26
2022-08-10T16:56:48.589Z,18.24
2022-08-10T16:59:21.010Z,18.19
2022-08-10T17:01:54.226Z,18.21
2022-08-10T17:04:23.598Z,18.14
2022-08-10T17:07:08.216Z,18.03
2022-08-10T17:09:37.373Z,18.12
2022-08-10T17:12:13.373Z,18.01
2022-08-10T17:14:41.852Z,18.12
2022-08-10T17:17:12.587Z,18.09
2022-08-10T17:19:47.492Z,18.08
2022-08-10T17:22:19.009Z,18.11
2022-08-10T17:25:12.973Z,18.12
2022-08-10T17:28:03.924Z,18.11
2022-08-10T17:30:35.370Z,18.18
2022-08-10T17:33:20.159Z,18.08
2022-08-10T17:35:49.549Z,18.06
2022-08-10T17:38:20.945Z,18.16
2022-08-10T17:40:50.968Z,18.16
2022-08-10T17:43:58.372Z,18.14
2022-08-10T17:46:12.558Z,18.12
2022-08-10T17:48:41.910Z,18.13
2022-08-10T17:51:12.528Z,18.09
2022-08-10T17:53:47.104Z,18.07
2022-08-10T17:56:15.661Z,18.11
2022-08-10T17:58:51.139Z,18.13
2022-08-10T18:01:41.239Z,17.87
2022-08-10T18:04:14.393Z,18.18
2022-08-10T18:06:43.368Z,18.19
2022-08-10T18:09:18.696Z,18.19
2022-08-10T18:11:49.580Z,18.24
2022-08-10T18:14:19.385Z,18.24
2022-08-10T18:16:49.142Z,18.31
2022-08-10T18:19:18.048Z,18.22
2022-08-10T18:21:47.289Z,18.23
2022-08-10T18:24:21.529Z,18.28
2022-08-10T18:26:51.073Z,18.35
2022-08-10T18:29:29.940Z,18.44
2022-08-10T18:32:01.937Z,18.33
2022-08-10T18:34:29.647Z,18.40
2022-08-10T18:36:57.064Z,18.30
2022-08-10T18:39:29.599Z,18.26
2022-08-10T18:42:09.849Z,18.33
2022-08-10T18:44:41.058Z,18.16
2022-08-10T18:47:17.880Z,18.11
2022-08-10T18:49:58.937Z,18.21
2022-08-10T18:52:29.761Z,18.03
2022-08-10T18:55:14.447Z,17.94
2022-08-10T18:57:57.780Z,17.86
2022-08-10T19:00:41.245Z,17.93
2022-08-10T19:03:22.891Z,18.05
2022-08-10T19:06:09.348Z,18.06
2022-08-10T19:09:09.622Z,18.00
2022-08-10T19:12:31.175Z,17.97
2022-08-10T19:15:17.003Z,17.97
2022-08-10T19:18:04.053Z,17.97
2022-08-10T19:20:36.425Z,17.91
2022-08-10T19:23:06.059Z,18.02
2022-08-10T19:26:38.051Z,18.09
2022-08-10T19:28:53.226Z,18.05
2022-08-10T19:31:43.940Z,18.06
2022-08-10T19:34:37.419Z,18.07
2022-08-10T19:37:15.402Z,18.14
2022-08-10T19:39:59.373Z,18.21
2022-08-10T19:42:39.237Z,18.12
2022-08-10T19:46:01.531Z,18.14
2022-08-10T19:48:42.603Z,18.17
2022-08-10T19:51:49.082Z,18.26
2022-08-10T19:54:30.949Z,18.33
2022-08-10T19:57:27.740Z,18.28
2022-08-10T20:00:18.649Z,18.23
2022-08-10T20:02:55.658Z,18.22
2022-08-10T20:06:15.339Z,18.22
2022-08-10T20:09:01.356Z,18.26
2022-08-10T20:11:50.749Z,18.34
2022-08-10T20:14:22.211Z,18.38
2022-08-10T20:16:51.626Z,18.41
2022-08-10T20:19:52.839Z,18.50
2022-08-10T20:22:28.979Z,18.58
2022-08-10T20:25:16.682Z,18.64
2022-08-10T20:28:06.848Z,18.64
2022-08-10T20:30:37.755Z,18.74
2022-08-10T20:33:17.362Z,18.74
2022-08-10T20:35:50.230Z,18.87
2022-08-10T20:38:29.015Z,18.89
2022-08-10T20:41:11.228Z,18.89
2022-08-10T20:43:53.650Z,18.95
2022-08-10T20:46:27.849Z,18.80
2022-08-10T20:48:54.619Z,18.64
2022-08-10T20:51:26.317Z,18.54
2022-08-10T20:54:15.403Z,18.57
2022-08-10T20:57:55.282Z,18.48
2022-08-10T21:00:14.180Z,18.33
2022-08-10T21:02:47.935Z,18.31
2022-08-10T21:05:25.399Z,18.26
2022-08-10T21:08:08.833Z,18.31
2022-08-10T21:10:57.832Z,18.31
2022-08-10T21:13:36.131Z,18.34
2022-08-10T21:16:14.776Z,18.45
2022-08-10T21:19:00.442Z,18.49
2022-08-10T21:22:04.191Z,18.43
2022-08-10T21:24:48.393Z,18.49
2022-08-10T21:27:37.454Z,18.49
2022-08-10T21:30:09.720Z,18.45
2022-08-10T21:32:59.332Z,18.45
2022-08-10T21:35:37.494Z,18.53
2022-08-10T21:38:26.806Z,18.54
2022-08-10T21:41:18.005Z,18.54
2022-08-10T21:44:16.529Z,18.50
2022-08-10T21:47:11.508Z,18.39
2022-08-10T21:50:24.710Z,18.36
2022-08-10T21:53:19.317Z,18.31
2022-08-10T21:56:22.408Z,18.29
2022-08-10T21:59:38.425Z,18.30
2022-08-10T22:02:28.022Z,18.14
2022-08-10T22:05:18.561Z,18.16
2022-08-10T22:08:12.079Z,18.24
2022-08-10T22:11:06.610Z,18.28
2022-08-10T22:13:56.292Z,18.45
2022-08-10T22:17:01.092Z,18.44
2022-08-10T22:19:51.384Z,18.33
2022-08-10T22:22:45.178Z,18.40
2022-08-10T22:26:06.993Z,18.41
2022-08-10T22:29:03.575Z,18.34
2022-08-10T22:32:15.495Z,18.32
2022-08-10T22:35:10.658Z,18.33
2022-08-10T23:01:01.031Z,18.58
2022-08-10T23:03:30.403Z,18.31
2022-08-10T23:06:11.571Z,18.25
2022-08-10T23:08:46.972Z,18.09
2022-08-10T23:11:22.451Z,18.11
2022-08-10T23:13:57.476Z,18.10
2022-08-10T23:16:47.522Z,17.98
2022-08-10T23:19:20.601Z,17.98
2022-08-10T23:22:05.035Z,18.03
2022-08-10T23:24:34.932Z,17.97
2022-08-10T23:27:12.037Z,17.95
2022-08-10T23:29:43.652Z,17.89
2022-08-10T23:32:32.929Z,17.90
2022-08-10T23:36:05.634Z,17.90
2022-08-10T23:37:57.454Z,17.92
2022-08-10T23:40:25.832Z,17.90
2022-08-10T23:42:53.284Z,17.94
2022-08-10T23:45:26.846Z,17.81
2022-08-10T23:47:58.412Z,17.75
2022-08-10T23:50:28.175Z,17.75
2022-08-10T23:53:02.559Z,17.65
2022-08-10T23:55:49.068Z,17.62
2022-08-10T23:58:33.443Z,17.58
